Time;durP1;ratioP1;P1;durP2;ratioP2;P2;SDS_P1;SDS_P2;PMS_P1;PMS_P2;Temp;Humidity;BMP_temperature;BMP_pressure;BME280_temperature;BME280_humidity;BME280_pressure;Samples;Min_cycle;Max_cycle;Signal;HPM_P1;HPM_P2
2021/01/07 00:01:09;;;;;;;41.20;22.40;;;;;;;2.28;100.00;100348.47;4994217;28;20056;-67
2021/01/07 00:03:53;;;;;;;44.28;22.13;;;;;;;2.29;100.00;100351.00;4993895;28;20084;-67
2021/01/07 00:06:37;;;;;;;42.55;20.13;;;;;;;2.31;100.00;100351.78;4979150;28;20068;-67
2021/01/07 00:09:24;;;;;;;43.92;22.73;;;;;;;2.33;100.00;100347.28;4993759;28;20493;-67
2021/01/07 00:12:08;;;;;;;42.15;21.33;;;;;;;2.34;100.00;100343.69;4993982;28;20057;-67
2021/01/07 00:14:52;;;;;;;42.25;22.23;;;;;;;2.27;100.00;100347.63;4993567;28;20148;-66
2021/01/07 00:17:36;;;;;;;42.15;20.25;;;;;;;2.25;100.00;100348.63;4993938;28;20181;-67
2021/01/07 00:20:20;;;;;;;45.83;23.30;;;;;;;2.29;100.00;100340.47;4978951;28;20057;-67
2021/01/07 00:23:04;;;;;;;50.08;24.20;;;;;;;2.33;100.00;100346.41;4994000;28;20097;-66
2021/01/07 00:25:50;;;;;;;43.72;22.30;;;;;;;2.34;100.00;100338.44;4993885;28;20129;-68
2021/01/07 00:28:34;;;;;;;41.78;20.30;;;;;;;2.33;100.00;100341.16;4993970;28;20049;-66
2021/01/07 00:31:18;;;;;;;43.38;21.60;;;;;;;2.35;100.00;100341.91;4993866;28;20073;-68
2021/01/07 00:34:03;;;;;;;44.47;22.10;;;;;;;2.33;100.00;100342.00;4993774;28;20116;-66
2021/01/07 00:36:58;;;;;;;43.00;22.42;;;;;;;2.32;100.00;100337.69;4993594;28;20105;-67
2021/01/07 00:39:41;;;;;;;;;;;;;;;2.32;100.00;100339.47;4965992;28;20107;-66
2021/01/07 00:42:26;;;;;;;40.00;20.50;;;;;;;2.30;100.00;100331.69;4982881;28;19920;-66
2021/01/07 00:45:11;;;;;;;40.28;22.40;;;;;;;2.32;100.00;100340.31;4997547;28;20068;-68
2021/01/07 00:47:55;;;;;;;48.20;18.98;;;;;;;2.32;100.00;100339.47;4982711;28;20054;-68
2021/01/07 00:50:39;;;;;;;44.15;22.83;;;;;;;2.30;100.00;100347.47;4955546;28;20061;-68
2021/01/07 00:53:22;;;;;;;44.15;21.73;;;;;;;2.32;100.00;100335.06;4997131;28;20137;-66
2021/01/07 00:56:06;;;;;;;39.92;17.60;;;;;;;2.31;100.00;100338.63;4969174;28;20060;-67
2021/01/07 00:58:51;;;;;;;47.22;23.05;;;;;;;2.31;100.00;100338.63;4982765;28;20136;-68
2021/01/07 01:01:45;;;;;;;43.83;21.60;;;;;;;2.25;100.00;100338.97;4982579;28;20061;-66
2021/01/07 01:04:29;;;;;;;43.20;19.80;;;;;;;2.28;100.00;100343.22;4982250;28;20506;-67
2021/01/07 01:07:13;;;;;;;;;;;;;;;2.26;100.00;100335.41;4982634;28;20057;-66
2021/01/07 01:09:57;;;;;;;45.22;23.13;;;;;;;2.26;100.00;100340.69;4982387;28;19921;-67
2021/01/07 01:12:41;;;;;;;41.05;21.55;;;;;;;2.28;100.00;100346.69;4982039;28;20053;-68
2021/01/07 01:15:25;;;;;;;44.75;23.20;;;;;;;2.29;100.00;100345.75;4982315;28;20411;-67
2021/01/07 01:18:10;;;;;;;46.08;21.38;;;;;;;2.32;100.00;100345.59;4968699;28;20053;-67
2021/01/07 01:20:54;;;;;;;41.60;21.50;;;;;;;2.31;100.00;100345.66;4982033;28;20053;-68
2021/01/07 01:23:38;;;;;;;43.03;20.52;;;;;;;2.29;100.00;100343.13;4968486;28;20558;-68
2021/01/07 01:26:22;;;;;;;39.67;21.63;;;;;;;2.32;100.00;100344.72;4981819;28;20049;-68
2021/01/07 01:29:06;;;;;;;;;;;;;;;2.33;100.00;100347.28;4968601;28;20204;-67
2021/01/07 01:31:51;;;;;;;40.08;21.65;;;;;;;2.35;100.00;100344.53;4982021;28;19924;-67
2021/01/07 01:34:35;;;;;;;44.60;22.85;;;;;;;2.32;100.00;100350.84;4981873;28;20454;-68
2021/01/07 01:37:19;;;;;;;42.10;21.52;;;;;;;2.34;100.00;100353.38;4996793;28;20049;-68
2021/01/07 01:40:06;;;;;;;39.78;21.85;;;;;;;2.36;100.00;100348.88;4981596;28;20048;-67
2021/01/07 01:42:50;;;;;;;41.70;20.30;;;;;;;2.36;100.00;100354.16;4981917;28;20130;-64
2021/01/07 01:45:34;;;;;;;39.85;19.98;;;;;;;2.33;100.00;100351.66;4996328;28;20169;-67
2021/01/07 01:48:21;;;;;;;44.08;23.33;;;;;;;2.32;100.00;100350.84;4996510;28;20050;-68
2021/01/07 01:51:05;;;;;;;43.67;22.42;;;;;;;2.33;100.00;100349.91;4995851;28;20076;-66
2021/01/07 01:53:49;;;;;;;;;;;;;;;2.38;100.00;100354.91;4981966;28;20086;-65
2021/01/07 01:56:33;;;;;;;39.78;21.35;;;;;;;2.34;100.00;100353.38;4981335;28;19919;-67
2021/01/07 01:59:21;;;;;;;39.63;20.13;;;;;;;2.39;100.00;100360.03;4996043;28;20057;-67
2021/01/07 02:02:16;;;;;;;41.97;20.58;;;;;;;2.41;100.00;100358.19;4981782;28;20057;-67
2021/01/07 02:05:02;;;;;;;42.67;20.50;;;;;;;2.42;100.00;100352.00;4967457;28;20518;-68
2021/01/07 02:07:46;;;;;;;43.42;21.92;;;;;;;2.39;100.00;100352.16;4981333;28;20096;-68
2021/01/07 02:10:31;;;;;;;44.47;21.83;;;;;;;2.39;100.00;100361.84;4996085;28;20057;-67
2021/01/07 02:13:14;;;;;;;42.08;20.92;;;;;;;2.34;100.00;100359.47;4981230;28;20181;-65
2021/01/07 02:15:58;;;;;;;;;;;;;;;2.36;100.00;100357.59;4981186;28;20469;-66
2021/01/07 02:18:42;;;;;;;53.20;23.83;;;;;;;2.37;100.00;100354.03;4995757;28;20002;-68
2021/01/07 02:21:26;;;;;;;39.72;20.90;;;;;;;2.38;100.00;100350.47;4981154;28;20081;-68
2021/01/07 02:24:10;;;;;;;42.53;21.73;;;;;;;2.39;100.00;100352.16;4995414;28;20419;-68
2021/01/07 02:26:56;;;;;;;35.15;16.70;;;;;;;2.36;100.00;100356.78;4995764;28;20104;-67
2021/01/07 02:29:40;;;;;;;41.28;20.92;;;;;;;2.37;100.00;100346.13;4981018;28;20089;-67
2021/01/07 02:32:25;;;;;;;47.08;22.90;;;;;;;2.36;100.00;100341.81;4980778;28;20573;-68
2021/01/07 02:35:09;;;;;;;39.42;20.15;;;;;;;2.39;100.00;100346.06;4981045;28;20204;-65
2021/01/07 02:37:53;;;;;;;43.28;22.02;;;;;;;2.39;100.00;100349.53;4995249;28;20045;-67
2021/01/07 02:40:38;;;;;;;38.47;20.42;;;;;;;2.37;100.00;100347.94;4995305;28;20096;-67
2021/01/07 02:43:22;;;;;;;41.78;20.90;;;;;;;2.35;100.00;100350.66;4995479;28;20045;-67
2021/01/07 02:46:06;;;;;;;45.78;22.15;;;;;;;2.36;100.00;100336.56;4995140;28;20088;-66
2021/01/07 02:48:50;;;;;;;41.33;20.83;;;;;;;2.38;100.00;100341.75;4995145;28;20049;-65
2021/01/07 02:51:37;;;;;;;43.78;21.70;;;;;;;2.37;100.00;100340.88;4980534;28;20053;-66
2021/01/07 02:54:21;;;;;;;45.28;21.80;;;;;;;2.41;100.00;100345.03;4980340;28;20507;-66
2021/01/07 02:57:05;;;;;;;;;;;;;;;2.41;100.00;100338.91;4995334;28;20546;-66
2021/01/07 02:59:49;;;;;;;41.67;21.52;;;;;;;2.40;100.00;100334.59;4995177;28;19924;-67
2021/01/07 03:02:33;;;;;;;;;;;;;;;2.42;100.00;100334.41;4980234;28;20049;-65
2021/01/07 03:05:17;;;;;;;42.27;21.10;;;;;;;2.40;100.00;100332.78;4980135;28;19936;-67
2021/01/07 03:08:01;;;;;;;40.13;19.45;;;;;;;2.42;100.00;100341.47;4966584;28;20056;-67
2021/01/07 03:10:46;;;;;;;41.72;20.38;;;;;;;2.42;100.00;100336.22;4994934;28;20403;-66
2021/01/07 03:13:30;;;;;;;44.58;21.08;;;;;;;2.42;100.00;100338.84;4980215;28;20053;-65
2021/01/07 03:16:14;;;;;;;46.25;20.77;;;;;;;2.44;100.00;100334.31;5021906;22;20056;-64
2021/01/07 03:18:58;;;;;;;;;;;;;;;2.42;100.00;100330.94;4985972;28;20136;-65
2021/01/07 03:21:42;;;;;;;42.40;21.27;;;;;;;2.46;100.00;100335.06;4999483;28;20432;-65
2021/01/07 03:24:26;;;;;;;;;;;;;;;2.44;100.00;100329.06;5013671;28;20088;-65
2021/01/07 03:27:10;;;;;;;40.13;20.30;;;;;;;2.47;100.00;100331.50;5014058;28;19975;-64
2021/01/07 03:29:54;;;;;;;39.78;19.33;;;;;;;2.48;100.00;100330.56;5012852;28;20387;-63
2021/01/07 03:32:38;;;;;;;40.80;20.83;;;;;;;2.45;100.00;100325.50;5012790;28;20415;-63
2021/01/07 03:35:22;;;;;;;47.10;21.40;;;;;;;2.44;100.00;100329.06;5013154;28;20076;-64
2021/01/07 03:38:06;;;;;;;45.35;21.83;;;;;;;2.49;100.00;100329.63;4998926;28;20056;-64
2021/01/07 03:40:50;;;;;;;42.22;21.25;;;;;;;2.53;100.00;100329.34;5012970;28;20557;-64
2021/01/07 03:43:34;;;;;;;44.25;20.85;;;;;;;2.50;100.00;100324.28;5013027;28;20056;-64
2021/01/07 03:46:18;;;;;;;28.92;13.88;;;;;;;2.50;100.00;100319.00;5012867;28;20053;-64
2021/01/07 03:49:02;;;;;;;45.90;21.10;;;;;;;2.50;100.00;100319.00;5012686;28;20563;-63
2021/01/07 03:51:46;;;;;;;45.40;21.65;;;;;;;2.47;100.00;100320.16;5012903;28;20049;-64
2021/01/07 03:54:30;;;;;;;44.10;22.67;;;;;;;2.47;100.00;100320.16;5013514;28;20104;-65
2021/01/07 03:57:14;;;;;;;;;;;;;;;2.47;100.00;100323.59;5013964;28;20589;-63
2021/01/07 03:59:58;;;;;;;43.70;19.60;;;;;;;2.43;100.00;100319.47;5013563;28;20008;-66
2021/01/07 04:02:42;;;;;;;46.67;22.23;;;;;;;2.43;100.00;100322.94;5013710;28;20049;-66
2021/01/07 04:05:26;;;;;;;55.33;24.45;;;;;;;2.43;100.00;100316.84;5012762;28;20052;-66
2021/01/07 04:08:10;;;;;;;50.83;23.23;;;;;;;2.40;100.00;100314.38;5013645;28;20133;-66
2021/01/07 04:10:54;;;;;;;45.50;22.70;;;;;;;2.42;100.00;100315.16;5013384;28;20103;-64
2021/01/07 04:13:38;;;;;;;48.42;22.73;;;;;;;2.43;100.00;100312.41;5012646;28;20049;-66
2021/01/07 04:16:22;;;;;;;51.13;22.58;;;;;;;2.43;100.00;100311.59;5018926;28;20048;-64
2021/01/07 04:19:06;;;;;;;51.38;22.15;;;;;;;2.42;100.00;100315.16;5019903;28;20140;-63
2021/01/07 04:21:50;;;;;;;52.38;24.48;;;;;;;2.41;100.00;100309.97;5020123;28;20049;-64
2021/01/07 04:24:34;;;;;;;52.90;23.00;;;;;;;2.41;100.00;100312.63;5005428;28;20056;-66
2021/01/07 04:27:18;;;;;;;48.25;20.55;;;;;;;2.41;100.00;100312.63;5019831;28;20053;-64
2021/01/07 04:30:03;;;;;;;;;;;;;;;2.37;100.00;100311.94;5019507;28;20057;-66
2021/01/07 04:32:47;;;;;;;52.08;24.48;;;;;;;2.39;100.00;100310.06;5018823;28;19925;-66
2021/01/07 04:35:31;;;;;;;60.92;25.63;;;;;;;2.41;100.00;100316.09;5019888;28;20124;-66
2021/01/07 04:38:15;;;;;;;43.38;18.27;;;;;;;2.43;100.00;100308.97;5004803;28;20056;-66
2021/01/07 04:40:59;;;;;;;;;;;;;;;2.42;100.00;100309.03;5020284;28;20053;-66
2021/01/07 04:43:43;;;;;;;51.13;24.10;;;;;;;2.42;100.00;100309.91;5019657;28;20309;-65
2021/01/07 04:46:28;;;;;;;59.70;24.65;;;;;;;2.40;100.00;100306.50;5018574;28;20104;-64
2021/01/07 04:49:12;;;;;;;54.45;25.35;;;;;;;2.45;100.00;100312.34;5019847;28;20100;-66
2021/01/07 04:51:56;;;;;;;52.28;22.98;;;;;;;2.48;100.00;100309.50;5019540;28;20100;-65
2021/01/07 04:54:40;;;;;;;52.35;24.08;;;;;;;2.47;100.00;100308.69;5004789;28;20415;-66
2021/01/07 04:57:24;;;;;;;47.20;20.52;;;;;;;2.50;100.00;100315.53;5018712;28;20430;-66
2021/01/07 05:00:10;;;;;;;52.70;24.77;;;;;;;2.48;100.00;100314.78;5018478;28;20048;-66
2021/01/07 05:02:54;;;;;;;54.13;24.80;;;;;;;2.47;100.00;100311.31;5018716;28;20053;-66
2021/01/07 05:05:39;;;;;;;53.22;24.50;;;;;;;2.50;100.00;100318.16;5019338;28;20079;-67
2021/01/07 05:08:23;;;;;;;58.67;25.60;;;;;;;2.48;100.00;100313.00;5019668;28;20156;-66
2021/01/07 05:11:08;;;;;;;50.90;25.33;;;;;;;2.44;100.00;100306.22;5019607;28;20048;-66
2021/01/07 05:13:59;;;;;;;58.42;25.67;;;;;;;2.43;100.00;100307.16;5018585;28;20052;-65
2021/01/07 05:16:44;;;;;;;52.72;23.98;;;;;;;2.49;100.00;100300.69;5019260;28;20533;-65
2021/01/07 05:19:28;;;;;;;;;;;;;;;2.48;100.00;100305.09;5018998;28;20052;-66
2021/01/07 05:22:12;;;;;;;52.77;24.07;;;;;;;2.44;100.00;100311.47;5018574;28;20056;-66
2021/01/07 05:24:56;;;;;;;58.15;25.63;;;;;;;2.43;100.00;100311.59;5019486;28;20410;-66
2021/01/07 05:27:41;;;;;;;58.80;24.13;;;;;;;2.47;100.00;100310.44;5015403;28;20057;-66
2021/01/07 05:30:27;;;;;;;56.72;24.67;;;;;;;2.44;100.00;100308.84;5015405;28;20525;-66
2021/01/07 05:33:11;;;;;;;59.60;25.40;;;;;;;2.44;100.00;100305.38;5015392;28;20053;-66
2021/01/07 05:35:55;;;;;;;63.20;26.42;;;;;;;2.41;100.00;100302.94;5016428;28;20104;-66
2021/01/07 05:38:39;;;;;;;59.38;25.48;;;;;;;2.39;100.00;100310.06;5016451;28;20049;-65
2021/01/07 05:41:25;;;;;;;54.60;24.52;;;;;;;2.42;100.00;100315.16;5015913;28;20621;-65
2021/01/07 05:44:13;;;;;;;59.88;26.75;;;;;;;2.43;100.00;100311.59;5015870;28;20099;-66
2021/01/07 05:46:57;;;;;;;55.05;24.20;;;;;;;2.39;100.00;100312.69;5015762;28;20513;-66
2021/01/07 05:49:41;;;;;;;58.10;25.10;;;;;;;2.41;100.00;100305.56;5001224;28;20541;-66
2021/01/07 05:52:29;;;;;;;55.78;25.48;;;;;;;2.43;100.00;100311.59;5014927;28;20103;-63
2021/01/07 05:55:15;;;;;;;57.03;26.58;;;;;;;2.41;100.00;100300.31;5014588;28;20096;-65
2021/01/07 05:58:02;;;;;;;54.28;24.92;;;;;;;2.39;100.00;100306.59;5015544;28;20060;-65
2021/01/07 06:00:47;;;;;;;54.08;25.92;;;;;;;2.45;100.00;100309.72;5015766;28;20121;-65
2021/01/07 06:03:31;;;;;;;;;;;;;;;2.43;100.00;100306.31;5015144;28;20053;-65
2021/01/07 06:06:16;;;;;;;52.33;24.27;;;;;;;2.44;100.00;100306.22;5014706;28;19924;-64
2021/01/07 06:09:01;;;;;;;59.58;25.50;;;;;;;2.40;100.00;100309.13;5000708;28;20274;-63
2021/01/07 06:11:45;;;;;;;61.22;26.02;;;;;;;2.38;100.00;100308.38;5014443;28;20561;-67
2021/01/07 06:14:29;;;;;;;57.67;25.80;;;;;;;2.42;100.00;100307.25;5014485;28;20099;-67
2021/01/07 06:17:14;;;;;;;56.75;24.80;;;;;;;2.41;100.00;100307.34;5015067;28;20096;-66
2021/01/07 06:19:58;;;;;;;56.25;24.35;;;;;;;2.41;100.00;100316.09;5000614;28;20533;-67
2021/01/07 06:22:47;;;;;;;54.85;24.80;;;;;;;2.36;100.00;100310.25;5014311;28;20498;-67
2021/01/07 06:25:31;;;;;;;54.65;24.05;;;;;;;2.35;100.00;100319.09;5014146;28;20048;-67
2021/01/07 06:28:26;;;;;;;55.45;24.85;;;;;;;2.36;100.00;100310.25;5014959;28;20458;-67
2021/01/07 06:31:14;;;;;;;54.40;24.58;;;;;;;2.34;100.00;100312.13;5013957;28;20534;-67
2021/01/07 06:33:58;;;;;;;53.00;25.40;;;;;;;2.39;100.00;100310.06;5013968;28;20069;-67
2021/01/07 06:36:46;;;;;;;57.67;26.08;;;;;;;2.36;100.00;100312.06;5015131;28;20507;-67
2021/01/07 06:39:30;;;;;;;55.10;25.98;;;;;;;2.35;100.00;100312.97;5013119;28;20048;-66
2021/01/07 06:42:18;;;;;;;54.53;24.40;;;;;;;2.35;100.00;100319.09;5014786;28;20096;-67
2021/01/07 06:45:04;;;;;;;56.30;25.55;;;;;;;2.38;100.00;100321.53;5014712;28;20057;-67
2021/01/07 06:47:48;;;;;;;58.83;25.55;;;;;;;2.36;100.00;100325.22;5013699;28;20044;-67
2021/01/07 06:50:36;;;;;;;52.75;25.00;;;;;;;2.29;100.00;100322.06;5014639;28;20096;-67
2021/01/07 06:53:20;;;;;;;59.17;26.08;;;;;;;2.28;100.00;100330.06;5013475;28;20107;-67
2021/01/07 06:56:14;;;;;;;54.05;25.23;;;;;;;2.22;100.00;100328.66;5014666;28;20056;-67
2021/01/07 06:58:59;;;;;;;54.50;23.92;;;;;;;2.22;100.00;100339.19;5014729;28;20053;-67
2021/01/07 07:01:57;;;;;;;63.20;28.40;;;;;;;2.21;100.00;100337.47;5013741;28;20411;-67
2021/01/07 07:04:45;;;;;;;64.22;27.70;;;;;;;2.26;100.00;100350.38;5014577;28;20044;-65
2021/01/07 07:07:38;;;;;;;57.67;24.42;;;;;;;2.22;100.00;100341.81;4999642;28;20053;-67
2021/01/07 07:10:22;;;;;;;57.40;26.65;;;;;;;2.26;100.00;100340.69;5014358;28;20096;-67
2021/01/07 07:13:15;;;;;;;51.63;25.73;;;;;;;2.26;100.00;100338.03;5014146;28;20092;-67
2021/01/07 07:16:02;;;;;;;62.38;27.40;;;;;;;2.23;100.00;100343.50;5014181;28;20072;-67
2021/01/07 07:18:46;;;;;;;54.45;24.58;;;;;;;2.22;100.00;100351.47;4999580;28;20414;-67
2021/01/07 07:21:30;;;;;;;61.35;27.25;;;;;;;2.19;100.00;100357.75;4999788;28;20084;-66
2021/01/07 07:24:15;;;;;;;59.95;26.83;;;;;;;2.22;100.00;100346.19;5014281;28;20077;-67
2021/01/07 07:27:04;;;;;;;59.92;24.33;;;;;;;2.21;100.00;100363.78;5014012;28;20092;-67
2021/01/07 07:29:49;;;;;;;55.22;25.23;;;;;;;2.17;100.00;100364.88;5012905;28;20053;-66
2021/01/07 07:32:43;;;;;;;58.08;26.92;;;;;;;2.19;100.00;100354.28;5013808;28;20096;-66
2021/01/07 07:35:31;;;;;;;58.83;26.20;;;;;;;2.17;100.00;100362.25;5013181;28;20041;-66
2021/01/07 07:38:16;;;;;;;58.13;26.45;;;;;;;2.14;100.00;100362.44;5014320;28;20129;-66
2021/01/07 07:41:03;;;;;;;;;;;;;;;2.21;100.00;100366.41;5014305;28;20080;-66
2021/01/07 07:43:53;;;;;;;59.08;24.25;;;;;;;2.18;100.00;100374.47;5012739;28;19940;-67
2021/01/07 07:46:37;;;;;;;51.92;24.42;;;;;;;2.18;100.00;100378.88;5012593;28;20134;-67
2021/01/07 07:49:23;;;;;;;60.47;26.15;;;;;;;2.21;100.00;100376.06;5012521;28;20092;-66
2021/01/07 07:52:08;;;;;;;55.50;25.58;;;;;;;2.23;100.00;100372.44;5013583;28;20064;-65
2021/01/07 07:55:19;;;;;;;60.72;25.85;;;;;;;2.17;100.00;100382.47;5013547;28;20041;-67
2021/01/07 07:58:10;;;;;;;59.38;24.48;;;;;;;2.16;100.00;100386.84;5012821;28;20112;-66
2021/01/07 08:00:58;;;;;;;41.58;18.52;;;;;;;2.18;100.00;100384.97;5012512;28;20104;-67
2021/01/07 08:03:42;;;;;;;52.50;25.40;;;;;;;2.19;100.00;100391.94;5013424;28;20074;-67
2021/01/07 08:06:26;;;;;;;55.08;23.65;;;;;;;2.19;100.00;100386.66;5013661;28;20072;-67
2021/01/07 08:09:12;;;;;;;60.03;26.05;;;;;;;2.22;100.00;100391.78;5013635;28;20516;-67
2021/01/07 08:11:56;;;;;;;59.55;25.13;;;;;;;2.21;100.00;100390.09;5012349;28;20122;-66
2021/01/07 08:14:41;;;;;;;58.45;25.88;;;;;;;2.17;100.00;100393.81;5013514;28;20115;-64
2021/01/07 08:17:25;;;;;;;55.40;24.92;;;;;;;2.19;100.00;100386.66;5013095;28;20110;-66
2021/01/07 08:20:10;;;;;;;54.92;24.65;;;;;;;2.26;100.00;100395.91;5012740;28;20157;-66
2021/01/07 08:22:54;;;;;;;58.17;25.83;;;;;;;2.32;100.00;100390.31;5013419;28;20539;-67
2021/01/07 08:25:39;;;;;;;54.35;24.52;;;;;;;2.41;100.00;100392.41;5012298;28;20044;-67
2021/01/07 08:28:28;;;;;;;56.05;25.63;;;;;;;2.41;100.00;100397.66;5012433;28;20638;-66
2021/01/07 08:31:19;;;;;;;49.22;23.17;;;;;;;2.43;100.00;100398.41;5012407;28;20053;-67
2021/01/07 08:34:03;;;;;;;52.50;22.75;;;;;;;2.42;100.00;100404.63;5013192;28;20426;-67
2021/01/07 08:36:47;;;;;;;49.80;23.70;;;;;;;2.40;100.00;100400.38;5012038;28;20521;-66
2021/01/07 08:39:35;;;;;;;49.28;24.60;;;;;;;2.49;100.00;100395.41;5013523;28;20056;-65
2021/01/07 08:42:20;;;;;;;48.03;23.00;;;;;;;2.50;100.00;100394.47;4998506;28;20049;-65
2021/01/07 08:45:05;;;;;;;50.67;22.33;;;;;;;2.55;100.00;100389.78;4998478;28;20125;-67
2021/01/07 08:47:49;;;;;;;50.80;22.67;;;;;;;2.60;100.00;100392.97;5011926;28;20095;-66
2021/01/07 08:50:33;;;;;;;48.47;23.50;;;;;;;2.62;100.00;100391.94;5013295;28;20095;-64
2021/01/07 08:53:18;;;;;;;50.13;23.88;;;;;;;2.62;100.00;100385.84;5012198;28;20053;-66
2021/01/07 08:56:02;;;;;;;48.90;24.10;;;;;;;2.62;100.00;100380.59;5011943;28;20052;-66
2021/01/07 08:58:46;;;;;;;;;;;;;;;2.62;100.00;100386.69;4998725;28;20056;-66
2021/01/07 09:01:31;;;;;;;48.03;21.87;;;;;;;2.58;100.00;100384.31;5013865;28;20056;-66
2021/01/07 09:04:30;;;;;;;49.75;23.08;;;;;;;2.53;100.00;100383.78;5016606;28;20053;-66
2021/01/07 09:07:14;;;;;;;42.38;19.15;;;;;;;2.50;100.00;100383.94;5015598;28;20153;-67
2021/01/07 09:09:58;;;;;;;51.35;24.40;;;;;;;2.49;100.00;100383.09;5016041;28;20099;-66
2021/01/07 09:12:43;;;;;;;49.90;23.98;;;;;;;2.59;100.00;100392.16;5015933;28;20077;-67
2021/01/07 09:15:27;;;;;;;55.78;25.02;;;;;;;2.72;100.00;100387.00;5016686;28;20053;-66
2021/01/07 09:18:11;;;;;;;49.42;22.92;;;;;;;2.84;100.00;100394.97;5035506;23;20070;-66
2021/01/07 09:20:54;;;;;;;;;;;;;;;2.79;100.00;100394.44;5016877;28;20112;-68
2021/01/07 09:23:39;;;;;;;47.03;21.65;;;;;;;2.77;100.00;100395.44;5015170;28;19940;-67
2021/01/07 09:26:26;;;;;;;;;;;;;;;2.76;100.00;100393.75;5016506;28;20095;-68
2021/01/07 09:29:10;;;;;;;45.58;21.92;;;;;;;2.84;100.00;100394.97;5016669;28;19920;-67
2021/01/07 09:31:55;;;;;;;48.10;23.70;;;;;;;2.96;100.00;100390.75;5016453;28;20060;-68
2021/01/07 09:34:40;;;;;;;46.33;20.90;;;;;;;2.97;100.00;100400.34;5015927;28;20057;-67
2021/01/07 09:37:24;;;;;;;50.08;23.30;;;;;;;2.97;100.00;100403.00;5014949;28;20545;-67
2021/01/07 09:40:09;;;;;;;44.17;22.13;;;;;;;2.94;100.00;100397.91;5015538;28;20049;-68
2021/01/07 09:42:53;;;;;;;45.75;21.38;;;;;;;3.03;100.00;100387.66;5016061;28;20418;-68
2021/01/07 09:45:37;;;;;;;43.42;20.25;;;;;;;3.03;100.00;100387.66;5015204;28;20061;-68
2021/01/07 09:48:22;;;;;;;47.45;22.73;;;;;;;3.06;100.00;100389.25;5015747;28;20084;-68
2021/01/07 09:51:06;;;;;;;48.15;23.08;;;;;;;3.15;100.00;100386.91;5014823;28;20060;-69
2021/01/07 09:53:50;;;;;;;47.15;23.33;;;;;;;3.18;100.00;100392.00;5015955;28;20505;-68
2021/01/07 09:56:34;;;;;;;46.72;22.77;;;;;;;3.32;100.00;100388.47;5014883;28;20052;-68
2021/01/07 09:59:19;;;;;;;49.80;25.10;;;;;;;3.37;100.00;100387.28;5016227;28;20234;-67
2021/01/07 10:02:08;;;;;;;45.20;23.63;;;;;;;3.45;100.00;100384.16;5016255;28;20052;-67
2021/01/07 10:04:52;;;;;;;47.08;23.80;;;;;;;3.56;100.00;100376.41;5015228;28;20048;-66
2021/01/07 10:07:36;;;;;;;45.45;22.50;;;;;;;3.69;100.00;100378.16;5015493;28;20056;-67
2021/01/07 10:10:20;;;;;;;44.10;22.40;;;;;;;3.91;100.00;100377.59;5014692;28;20100;-67
2021/01/07 10:13:04;;;;;;;40.03;21.77;;;;;;;3.95;99.65;100373.84;5015538;28;20049;-67
2021/01/07 10:15:49;;;;;;;39.95;20.73;;;;;;;3.95;97.01;100373.84;5015596;28;20188;-67
2021/01/07 10:18:33;;;;;;;39.17;20.60;;;;;;;4.03;98.14;100366.25;5000372;28;20053;-67
2021/01/07 10:21:20;;;;;;;36.97;19.30;;;;;;;4.25;95.39;100363.91;5015458;28;20080;-66
2021/01/07 10:24:05;;;;;;;39.72;20.67;;;;;;;5.15;90.43;100346.03;5015685;28;20402;-67
2021/01/07 10:26:54;;;;;;;40.47;20.80;;;;;;;5.33;88.18;100347.38;5015178;28;20057;-67
2021/01/07 10:29:38;;;;;;;36.65;18.90;;;;;;;6.03;84.87;100351.91;5014085;28;20049;-67
2021/01/07 10:32:22;;;;;;;34.80;16.92;;;;;;;6.79;78.72;100346.97;5014177;28;20048;-68
2021/01/07 10:35:07;;;;;;;30.90;17.05;;;;;;;6.77;78.86;100344.41;5014243;28;20045;-67
2021/01/07 10:37:58;;;;;;;34.60;18.27;;;;;;;7.27;76.65;100337.81;5000399;28;20052;-67
2021/01/07 10:40:45;;;;;;;32.25;17.67;;;;;;;7.74;72.35;100333.03;5015371;28;20048;-68
2021/01/07 10:43:30;;;;;;;33.60;17.50;;;;;;;7.12;74.06;100331.06;5014767;28;20041;-67
2021/01/07 10:46:14;;;;;;;31.08;17.83;;;;;;;7.25;73.45;100329.13;5013919;28;20088;-67
2021/01/07 10:48:58;;;;;;;29.58;16.08;;;;;;;7.18;73.58;100338.56;5013974;28;20076;-67
2021/01/07 10:52:02;;;;;;;29.67;16.50;;;;;;;6.58;76.01;100336.19;5013949;28;20060;-67
2021/01/07 10:54:46;;;;;;;;;;;;;;;6.26;76.85;100342.28;5014214;28;20079;-67
2021/01/07 10:57:51;;;;;;;34.42;16.52;;;;;;;5.62;79.98;100335.56;5014494;28;19963;-67
2021/01/07 11:00:44;;;;;;;32.78;18.42;;;;;;;5.54;82.24;100335.25;5013727;28;20069;-66
2021/01/07 11:03:45;;;;;;;32.45;15.93;;;;;;;5.43;82.36;100334.38;5014707;28;20053;-67
2021/01/07 11:06:30;;;;;;;26.70;14.32;;;;;;;5.05;83.89;100344.19;5013576;28;20050;-67
2021/01/07 11:09:16;;;;;;;31.60;16.73;;;;;;;5.04;84.04;100337.19;5014582;28;20053;-67
2021/01/07 11:12:08;;;;;;;26.75;13.35;;;;;;;4.84;85.67;100339.53;5013607;28;20076;-67
2021/01/07 11:15:01;;;;;;;32.20;16.48;;;;;;;4.68;87.20;100323.06;5013400;28;20052;-67
2021/01/07 11:18:06;;;;;;;32.85;16.40;;;;;;;4.92;87.11;100331.94;5013003;28;20520;-67
2021/01/07 11:20:49;;;;;;;;;;;;;;;5.31;86.26;100319.38;5014884;28;20123;-67
2021/01/07 11:23:34;;;;;;;28.63;15.90;;;;;;;5.68;83.33;100315.75;5013161;28;19928;-67
2021/01/07 11:26:20;;;;;;;31.33;17.73;;;;;;;5.84;82.50;100308.44;5012983;28;20348;-68
2021/01/07 11:29:04;;;;;;;28.55;15.57;;;;;;;5.85;78.37;100316.22;5013007;28;20080;-67
2021/01/07 11:31:48;;;;;;;26.65;13.93;;;;;;;5.78;79.00;100309.69;5013251;28;20133;-67
2021/01/07 11:34:32;;;;;;;25.90;13.70;;;;;;;5.90;78.24;100300.00;5014122;28;20052;-67
2021/01/07 11:37:38;;;;;;;26.83;15.77;;;;;;;5.91;80.91;100299.91;5013758;28;20115;-67
2021/01/07 11:40:44;;;;;;;27.65;14.07;;;;;;;5.82;79.03;100299.72;5012986;28;20410;-66
2021/01/07 11:43:44;;;;;;;25.38;13.70;;;;;;;5.68;78.08;100290.16;5013315;28;20048;-67
2021/01/07 11:46:32;;;;;;;27.40;14.13;;;;;;;5.60;78.45;100284.59;5012723;28;20470;-67
2021/01/07 11:49:18;;;;;;;25.08;13.52;;;;;;;5.29;80.39;100285.13;5012746;28;20085;-67
2021/01/07 11:52:03;;;;;;;23.42;13.77;;;;;;;5.05;81.97;100275.47;5012603;28;20414;-67
2021/01/07 11:54:47;;;;;;;24.90;13.77;;;;;;;5.31;81.17;100277.06;5013563;28;20049;-67
2021/01/07 11:57:31;;;;;;;24.38;13.60;;;;;;;5.45;81.45;100269.84;5012618;28;20164;-67
2021/01/07 12:00:17;;;;;;;20.48;10.55;;;;;;;5.05;80.16;100281.59;5012720;28;20045;-67
2021/01/07 12:03:01;;;;;;;23.17;13.20;;;;;;;4.93;81.44;100272.84;5013984;28;20048;-66
2021/01/07 12:05:45;;;;;;;26.15;14.80;;;;;;;4.96;82.78;100265.56;5013796;28;20069;-67
2021/01/07 12:08:58;;;;;;;26.15;14.55;;;;;;;4.83;84.88;100269.19;5012706;28;20053;-67
2021/01/07 12:11:48;;;;;;;22.23;12.80;;;;;;;4.75;83.06;100271.50;5012694;28;20041;-67
2021/01/07 12:14:39;;;;;;;25.20;12.13;;;;;;;4.73;82.73;100265.50;5013634;28;20053;-67
2021/01/07 12:17:23;;;;;;;23.67;13.70;;;;;;;4.82;83.18;100265.72;5012140;28;20052;-67
2021/01/07 12:20:08;;;;;;;30.67;15.00;;;;;;;4.95;82.40;100254.13;5012640;28;20076;-67
2021/01/07 12:22:53;;;;;;;24.98;13.45;;;;;;;5.23;81.08;100253.84;5012563;28;20049;-67
2021/01/07 12:25:39;;;;;;;27.40;14.70;;;;;;;5.56;80.88;100261.94;5013250;28;20104;-67
2021/01/07 12:28:26;;;;;;;24.52;13.20;;;;;;;5.83;79.10;100252.00;5013202;28;20084;-67
2021/01/07 12:31:13;;;;;;;23.20;13.23;;;;;;;6.18;77.56;100246.72;5013050;28;20068;-66
2021/01/07 12:34:15;;;;;;;22.52;13.05;;;;;;;6.12;76.26;100261.25;5012999;28;20417;-67
2021/01/07 12:37:05;;;;;;;23.73;14.05;;;;;;;5.96;76.46;100255.41;5016216;28;20060;-67
2021/01/07 12:39:51;;;;;;;23.85;13.23;;;;;;;5.97;77.20;100251.81;5017413;28;20208;-67
2021/01/07 12:42:42;;;;;;;23.65;14.07;;;;;;;5.50;78.66;100258.91;5016332;28;20045;-67